Аэропорт: Талаги. Архангельск

ICAO: ULAA

METAR:
2018/07/16 20:00
ULAA 162000Z 33002MPS CAVOK 18/17 Q1017 R26/CLRD70 NOSIG RMK QFE761/1015
METAR:
2018/07/16 18:57
TAF ULAA 161657Z 1618/1718 30004MPS 9999 BKN020 
      TEMPO 1618/1621 33004G09MPS SCT015CB 
      TEMPO 1621/1705 03003MPS 2100 BR SCT007